sensor_id;sensor_type;location;lat;lon;timestamp;P1;durP1;ratioP1;P2;durP2;ratioP2
15246;SDS011;7726;48.820;9.248;2023-09-08T00:02:22;5.55;;;5.07;;
15246;SDS011;7726;48.820;9.248;2023-09-08T00:04:49;6.65;;;5.38;;
15246;SDS011;7726;48.820;9.248;2023-09-08T00:07:17;6.57;;;5.78;;
15246;SDS011;7726;48.820;9.248;2023-09-08T00:09:45;7.03;;;6.30;;
15246;SDS011;7726;48.820;9.248;2023-09-08T00:12:12;7.43;;;6.03;;
15246;SDS011;7726;48.820;9.248;2023-09-08T00:14:39;8.45;;;5.53;;
15246;SDS011;7726;48.820;9.248;2023-09-08T00:17:06;8.45;;;6.43;;
15246;SDS011;7726;48.820;9.248;2023-09-08T00:19:33;6.72;;;6.13;;
15246;SDS011;7726;48.820;9.248;2023-09-08T00:22:01;8.43;;;6.25;;
15246;SDS011;7726;48.820;9.248;2023-09-08T00:24:29;6.55;;;5.95;;
15246;SDS011;7726;48.820;9.248;2023-09-08T00:26:56;6.70;;;6.03;;
15246;SDS011;7726;48.820;9.248;2023-09-08T00:29:23;6.85;;;6.13;;
15246;SDS011;7726;48.820;9.248;2023-09-08T00:31:50;7.72;;;6.18;;
15246;SDS011;7726;48.820;9.248;2023-09-08T00:34:18;8.52;;;6.20;;
15246;SDS011;7726;48.820;9.248;2023-09-08T00:36:45;5.70;;;5.20;;
15246;SDS011;7726;48.820;9.248;2023-09-08T00:39:12;7.60;;;6.30;;
15246;SDS011;7726;48.820;9.248;2023-09-08T00:41:40;6.82;;;6.13;;
15246;SDS011;7726;48.820;9.248;2023-09-08T00:44:07;7.32;;;5.68;;
15246;SDS011;7726;48.820;9.248;2023-09-08T00:46:36;5.88;;;5.28;;
15246;SDS011;7726;48.820;9.248;2023-09-08T00:49:03;6.47;;;5.88;;
15246;SDS011;7726;48.820;9.248;2023-09-08T00:51:31;6.82;;;5.60;;
15246;SDS011;7726;48.820;9.248;2023-09-08T00:54:00;6.75;;;5.05;;
15246;SDS011;7726;48.820;9.248;2023-09-08T00:56:27;6.38;;;5.75;;
15246;SDS011;7726;48.820;9.248;2023-09-08T00:58:57;6.18;;;5.57;;
15246;SDS011;7726;48.820;9.248;2023-09-08T01:01:24;6.43;;;5.75;;
15246;SDS011;7726;48.820;9.248;2023-09-08T01:03:51;6.05;;;5.45;;
15246;SDS011;7726;48.820;9.248;2023-09-08T01:06:18;6.63;;;5.68;;
15246;SDS011;7726;48.820;9.248;2023-09-08T01:08:45;8.10;;;6.53;;
15246;SDS011;7726;48.820;9.248;2023-09-08T01:11:13;8.57;;;5.90;;
15246;SDS011;7726;48.820;9.248;2023-09-08T01:13:40;6.05;;;5.45;;
15246;SDS011;7726;48.820;9.248;2023-09-08T01:16:08;6.20;;;5.60;;
15246;SDS011;7726;48.820;9.248;2023-09-08T01:18:36;6.00;;;5.32;;
15246;SDS011;7726;48.820;9.248;2023-09-08T01:21:05;7.05;;;5.93;;
15246;SDS011;7726;48.820;9.248;2023-09-08T01:23:42;7.43;;;6.10;;
15246;SDS011;7726;48.820;9.248;2023-09-08T01:26:15;6.88;;;6.05;;
15246;SDS011;7726;48.820;9.248;2023-09-08T01:28:44;6.07;;;5.47;;
15246;SDS011;7726;48.820;9.248;2023-09-08T01:31:12;7.68;;;6.65;;
15246;SDS011;7726;48.820;9.248;2023-09-08T01:33:39;6.75;;;5.93;;
15246;SDS011;7726;48.820;9.248;2023-09-08T01:36:07;6.68;;;5.97;;
15246;SDS011;7726;48.820;9.248;2023-09-08T01:38:34;6.45;;;5.07;;
15246;SDS011;7726;48.820;9.248;2023-09-08T01:41:01;6.32;;;5.72;;
15246;SDS011;7726;48.820;9.248;2023-09-08T01:43:30;7.20;;;6.50;;
15246;SDS011;7726;48.820;9.248;2023-09-08T01:45:57;6.30;;;5.70;;
15246;SDS011;7726;48.820;9.248;2023-09-08T01:48:24;6.80;;;5.95;;
15246;SDS011;7726;48.820;9.248;2023-09-08T01:50:51;7.10;;;5.88;;
15246;SDS011;7726;48.820;9.248;2023-09-08T01:53:18;6.20;;;5.70;;
15246;SDS011;7726;48.820;9.248;2023-09-08T01:55:45;6.22;;;5.38;;
15246;SDS011;7726;48.820;9.248;2023-09-08T01:58:13;5.45;;;4.95;;
15246;SDS011;7726;48.820;9.248;2023-09-08T02:00:41;6.95;;;5.70;;
15246;SDS011;7726;48.820;9.248;2023-09-08T02:03:08;6.95;;;6.35;;
15246;SDS011;7726;48.820;9.248;2023-09-08T02:05:35;6.07;;;5.47;;
15246;SDS011;7726;48.820;9.248;2023-09-08T02:08:04;6.47;;;5.80;;
15246;SDS011;7726;48.820;9.248;2023-09-08T02:10:31;6.10;;;5.60;;
15246;SDS011;7726;48.820;9.248;2023-09-08T02:12:58;6.75;;;6.05;;
15246;SDS011;7726;48.820;9.248;2023-09-08T02:15:26;8.10;;;6.85;;
15246;SDS011;7726;48.820;9.248;2023-09-08T02:17:54;8.82;;;6.40;;
15246;SDS011;7726;48.820;9.248;2023-09-08T02:20:21;8.07;;;6.50;;
15246;SDS011;7726;48.820;9.248;2023-09-08T02:22:49;7.82;;;7.05;;
15246;SDS011;7726;48.820;9.248;2023-09-08T02:25:15;7.97;;;7.18;;
15246;SDS011;7726;48.820;9.248;2023-09-08T02:27:43;8.13;;;7.30;;
15246;SDS011;7726;48.820;9.248;2023-09-08T02:30:10;9.73;;;7.47;;
15246;SDS011;7726;48.820;9.248;2023-09-08T02:32:37;10.63;;;7.85;;
15246;SDS011;7726;48.820;9.248;2023-09-08T02:35:09;7.85;;;7.15;;
15246;SDS011;7726;48.820;9.248;2023-09-08T02:37:36;9.25;;;7.63;;
15246;SDS011;7726;48.820;9.248;2023-09-08T02:40:04;9.60;;;7.40;;
15246;SDS011;7726;48.820;9.248;2023-09-08T02:42:32;8.38;;;7.40;;
15246;SDS011;7726;48.820;9.248;2023-09-08T02:44:59;9.93;;;7.03;;
15246;SDS011;7726;48.820;9.248;2023-09-08T02:47:26;7.95;;;7.05;;
15246;SDS011;7726;48.820;9.248;2023-09-08T02:49:53;8.27;;;7.50;;
15246;SDS011;7726;48.820;9.248;2023-09-08T02:52:23;8.35;;;7.40;;
15246;SDS011;7726;48.820;9.248;2023-09-08T02:54:50;7.50;;;6.80;;
15246;SDS011;7726;48.820;9.248;2023-09-08T02:57:17;8.50;;;6.93;;
15246;SDS011;7726;48.820;9.248;2023-09-08T02:59:48;7.65;;;6.32;;
15246;SDS011;7726;48.820;9.248;2023-09-08T03:02:16;8.38;;;7.45;;
15246;SDS011;7726;48.820;9.248;2023-09-08T03:04:44;7.05;;;6.40;;
15246;SDS011;7726;48.820;9.248;2023-09-08T03:07:11;8.25;;;7.40;;
15246;SDS011;7726;48.820;9.248;2023-09-08T03:09:39;9.00;;;7.03;;
15246;SDS011;7726;48.820;9.248;2023-09-08T03:12:06;8.10;;;6.85;;
15246;SDS011;7726;48.820;9.248;2023-09-08T03:14:33;7.47;;;6.50;;
15246;SDS011;7726;48.820;9.248;2023-09-08T03:17:01;7.03;;;6.32;;
15246;SDS011;7726;48.820;9.248;2023-09-08T03:19:28;10.85;;;7.40;;
15246;SDS011;7726;48.820;9.248;2023-09-08T03:21:55;9.75;;;6.93;;
15246;SDS011;7726;48.820;9.248;2023-09-08T03:24:22;10.20;;;7.65;;
15246;SDS011;7726;48.820;9.248;2023-09-08T03:26:50;7.68;;;6.75;;
15246;SDS011;7726;48.820;9.248;2023-09-08T03:29:17;9.63;;;6.95;;
15246;SDS011;7726;48.820;9.248;2023-09-08T03:31:45;7.75;;;6.93;;
15246;SDS011;7726;48.820;9.248;2023-09-08T03:34:12;8.75;;;6.78;;
15246;SDS011;7726;48.820;9.248;2023-09-08T03:36:39;6.90;;;6.20;;
15246;SDS011;7726;48.820;9.248;2023-09-08T03:39:06;8.07;;;7.28;;
15246;SDS011;7726;48.820;9.248;2023-09-08T03:41:34;8.27;;;6.97;;
15246;SDS011;7726;48.820;9.248;2023-09-08T03:44:03;9.15;;;7.10;;
15246;SDS011;7726;48.820;9.248;2023-09-08T03:46:30;7.50;;;6.50;;
15246;SDS011;7726;48.820;9.248;2023-09-08T03:48:57;9.27;;;7.10;;
15246;SDS011;7726;48.820;9.248;2023-09-08T03:51:26;10.82;;;6.60;;
15246;SDS011;7726;48.820;9.248;2023-09-08T03:53:53;7.40;;;6.63;;
15246;SDS011;7726;48.820;9.248;2023-09-08T03:56:20;9.95;;;6.97;;
15246;SDS011;7726;48.820;9.248;2023-09-08T03:58:47;7.40;;;6.47;;
15246;SDS011;7726;48.820;9.248;2023-09-08T04:01:16;11.93;;;7.38;;
15246;SDS011;7726;48.820;9.248;2023-09-08T04:03:43;8.27;;;7.40;;
15246;SDS011;7726;48.820;9.248;2023-09-08T04:06:10;8.32;;;6.47;;
15246;SDS011;7726;48.820;9.248;2023-09-08T04:08:37;6.95;;;6.30;;
15246;SDS011;7726;48.820;9.248;2023-09-08T04:11:04;7.13;;;6.53;;
15246;SDS011;7726;48.820;9.248;2023-09-08T04:13:31;7.68;;;6.38;;
15246;SDS011;7726;48.820;9.248;2023-09-08T04:15:58;9.13;;;6.90;;
15246;SDS011;7726;48.820;9.248;2023-09-08T04:18:27;7.65;;;6.95;;
15246;SDS011;7726;48.820;9.248;2023-09-08T04:20:54;7.22;;;6.53;;
15246;SDS011;7726;48.820;9.248;2023-09-08T04:23:21;8.15;;;7.35;;
15246;SDS011;7726;48.820;9.248;2023-09-08T04:25:48;7.75;;;7.05;;
15246;SDS011;7726;48.820;9.248;2023-09-08T04:28:15;7.97;;;7.18;;
15246;SDS011;7726;48.820;9.248;2023-09-08T04:30:43;8.65;;;7.50;;
15246;SDS011;7726;48.820;9.248;2023-09-08T04:33:10;8.63;;;7.72;;
15246;SDS011;7726;48.820;9.248;2023-09-08T04:35:38;9.15;;;6.88;;
15246;SDS011;7726;48.820;9.248;2023-09-08T04:38:07;14.43;;;7.88;;
15246;SDS011;7726;48.820;9.248;2023-09-08T04:40:34;10.43;;;7.28;;
15246;SDS011;7726;48.820;9.248;2023-09-08T04:43:01;9.15;;;7.78;;
15246;SDS011;7726;48.820;9.248;2023-09-08T04:45:28;9.80;;;7.20;;
15246;SDS011;7726;48.820;9.248;2023-09-08T04:47:55;10.20;;;7.38;;
15246;SDS011;7726;48.820;9.248;2023-09-08T04:50:23;8.85;;;7.82;;
15246;SDS011;7726;48.820;9.248;2023-09-08T04:52:51;8.18;;;7.38;;
15246;SDS011;7726;48.820;9.248;2023-09-08T04:55:18;8.40;;;7.50;;
15246;SDS011;7726;48.820;9.248;2023-09-08T04:57:45;8.18;;;7.25;;
15246;SDS011;7726;48.820;9.248;2023-09-08T05:00:13;7.90;;;7.03;;
15246;SDS011;7726;48.820;9.248;2023-09-08T05:02:40;7.80;;;7.10;;
15246;SDS011;7726;48.820;9.248;2023-09-08T05:05:07;8.18;;;7.38;;
15246;SDS011;7726;48.820;9.248;2023-09-08T05:07:34;9.90;;;7.18;;
15246;SDS011;7726;48.820;9.248;2023-09-08T05:10:03;7.90;;;7.20;;
15246;SDS011;7726;48.820;9.248;2023-09-08T05:12:30;7.88;;;6.90;;
15246;SDS011;7726;48.820;9.248;2023-09-08T05:14:57;7.65;;;6.90;;
15246;SDS011;7726;48.820;9.248;2023-09-08T05:17:31;7.97;;;7.28;;
15246;SDS011;7726;48.820;9.248;2023-09-08T05:19:59;7.50;;;6.80;;
15246;SDS011;7726;48.820;9.248;2023-09-08T05:22:26;9.93;;;7.07;;
15246;SDS011;7726;48.820;9.248;2023-09-08T05:24:53;9.93;;;7.45;;
15246;SDS011;7726;48.820;9.248;2023-09-08T05:27:21;7.85;;;6.70;;
15246;SDS011;7726;48.820;9.248;2023-09-08T05:29:49;7.60;;;6.82;;
15246;SDS011;7726;48.820;9.248;2023-09-08T05:32:16;7.32;;;6.53;;
15246;SDS011;7726;48.820;9.248;2023-09-08T05:34:43;7.78;;;6.72;;
15246;SDS011;7726;48.820;9.248;2023-09-08T05:37:10;7.00;;;6.30;;
15246;SDS011;7726;48.820;9.248;2023-09-08T05:39:37;7.65;;;6.20;;
15246;SDS011;7726;48.820;9.248;2023-09-08T05:42:04;6.93;;;6.30;;
15246;SDS011;7726;48.820;9.248;2023-09-08T05:44:33;7.80;;;6.97;;
15246;SDS011;7726;48.820;9.248;2023-09-08T05:47:00;7.53;;;6.72;;
15246;SDS011;7726;48.820;9.248;2023-09-08T05:49:27;7.68;;;6.40;;
15246;SDS011;7726;48.820;9.248;2023-09-08T05:51:54;9.80;;;7.78;;
15246;SDS011;7726;48.820;9.248;2023-09-08T05:54:22;11.40;;;7.25;;
15246;SDS011;7726;48.820;9.248;2023-09-08T05:56:49;10.88;;;7.07;;
15246;SDS011;7726;48.820;9.248;2023-09-08T05:59:16;11.75;;;6.80;;
15246;SDS011;7726;48.820;9.248;2023-09-08T06:01:44;8.32;;;6.63;;
15246;SDS011;7726;48.820;9.248;2023-09-08T06:04:11;9.23;;;6.85;;
15246;SDS011;7726;48.820;9.248;2023-09-08T06:06:39;12.13;;;6.72;;
15246;SDS011;7726;48.820;9.248;2023-09-08T06:09:06;9.18;;;6.80;;
15246;SDS011;7726;48.820;9.248;2023-09-08T06:11:34;10.15;;;6.32;;
15246;SDS011;7726;48.820;9.248;2023-09-08T06:14:01;10.85;;;6.97;;
15246;SDS011;7726;48.820;9.248;2023-09-08T06:16:28;10.40;;;6.72;;
15246;SDS011;7726;48.820;9.248;2023-09-08T06:18:56;7.68;;;6.40;;
15246;SDS011;7726;48.820;9.248;2023-09-08T06:21:25;12.27;;;6.88;;
15246;SDS011;7726;48.820;9.248;2023-09-08T06:23:52;12.80;;;6.65;;
15246;SDS011;7726;48.820;9.248;2023-09-08T06:26:19;14.68;;;7.88;;
15246;SDS011;7726;48.820;9.248;2023-09-08T06:28:46;11.05;;;6.97;;
15246;SDS011;7726;48.820;9.248;2023-09-08T06:31:14;15.52;;;6.75;;
15246;SDS011;7726;48.820;9.248;2023-09-08T06:33:41;8.57;;;6.53;;
15246;SDS011;7726;48.820;9.248;2023-09-08T06:36:09;13.23;;;6.95;;
15246;SDS011;7726;48.820;9.248;2023-09-08T06:38:36;11.45;;;6.43;;
15246;SDS011;7726;48.820;9.248;2023-09-08T06:41:08;8.65;;;6.20;;
15246;SDS011;7726;48.820;9.248;2023-09-08T06:43:35;7.55;;;6.75;;
15246;SDS011;7726;48.820;9.248;2023-09-08T06:46:02;10.65;;;6.68;;
15246;SDS011;7726;48.820;9.248;2023-09-08T06:48:30;8.63;;;6.65;;
15246;SDS011;7726;48.820;9.248;2023-09-08T06:50:57;9.35;;;6.75;;
15246;SDS011;7726;48.820;9.248;2023-09-08T06:53:25;10.93;;;6.75;;
15246;SDS011;7726;48.820;9.248;2023-09-08T06:55:53;7.10;;;6.40;;
15246;SDS011;7726;48.820;9.248;2023-09-08T06:58:20;11.95;;;6.18;;
15246;SDS011;7726;48.820;9.248;2023-09-08T07:00:47;7.07;;;6.35;;
15246;SDS011;7726;48.820;9.248;2023-09-08T07:03:18;8.70;;;5.95;;
15246;SDS011;7726;48.820;9.248;2023-09-08T07:05:46;8.52;;;6.47;;
15246;SDS011;7726;48.820;9.248;2023-09-08T07:08:13;9.40;;;6.90;;
15246;SDS011;7726;48.820;9.248;2023-09-08T07:10:42;9.25;;;6.53;;
15246;SDS011;7726;48.820;9.248;2023-09-08T07:13:09;7.88;;;5.50;;
15246;SDS011;7726;48.820;9.248;2023-09-08T07:15:36;8.20;;;6.50;;
15246;SDS011;7726;48.820;9.248;2023-09-08T07:18:04;7.97;;;6.10;;
15246;SDS011;7726;48.820;9.248;2023-09-08T07:20:31;6.80;;;6.13;;
15246;SDS011;7726;48.820;9.248;2023-09-08T07:22:59;8.20;;;6.18;;
15246;SDS011;7726;48.820;9.248;2023-09-08T07:25:27;6.28;;;5.68;;
15246;SDS011;7726;48.820;9.248;2023-09-08T07:27:55;6.38;;;5.80;;
15246;SDS011;7726;48.820;9.248;2023-09-08T07:30:22;7.25;;;5.82;;
15246;SDS011;7726;48.820;9.248;2023-09-08T07:32:51;9.65;;;5.75;;
15246;SDS011;7726;48.820;9.248;2023-09-08T07:35:18;6.53;;;5.57;;
15246;SDS011;7726;48.820;9.248;2023-09-08T07:37:45;7.28;;;6.00;;
15246;SDS011;7726;48.820;9.248;2023-09-08T07:40:12;7.00;;;6.07;;
15246;SDS011;7726;48.820;9.248;2023-09-08T07:42:40;6.15;;;5.60;;
15246;SDS011;7726;48.820;9.248;2023-09-08T07:45:08;8.00;;;6.20;;
15246;SDS011;7726;48.820;9.248;2023-09-08T07:47:36;6.63;;;5.78;;
15246;SDS011;7726;48.820;9.248;2023-09-08T07:50:16;6.47;;;5.63;;
15246;SDS011;7726;48.820;9.248;2023-09-08T07:52:43;6.45;;;5.85;;
15246;SDS011;7726;48.820;9.248;2023-09-08T07:55:10;6.40;;;5.80;;
15246;SDS011;7726;48.820;9.248;2023-09-08T07:57:38;6.43;;;5.82;;
15246;SDS011;7726;48.820;9.248;2023-09-08T08:00:05;7.82;;;5.72;;
15246;SDS011;7726;48.820;9.248;2023-09-08T08:02:36;6.35;;;5.75;;
15246;SDS011;7726;48.820;9.248;2023-09-08T08:05:04;7.05;;;5.63;;
15246;SDS011;7726;48.820;9.248;2023-09-08T08:07:32;6.85;;;6.20;;
15246;SDS011;7726;48.820;9.248;2023-09-08T08:09:59;6.55;;;5.95;;
15246;SDS011;7726;48.820;9.248;2023-09-08T08:12:26;6.75;;;6.20;;
15246;SDS011;7726;48.820;9.248;2023-09-08T08:14:54;6.60;;;6.00;;
15246;SDS011;7726;48.820;9.248;2023-09-08T08:17:21;6.78;;;6.10;;
15246;SDS011;7726;48.820;9.248;2023-09-08T08:19:49;7.38;;;5.60;;
15246;SDS011;7726;48.820;9.248;2023-09-08T08:22:17;5.85;;;5.35;;
15246;SDS011;7726;48.820;9.248;2023-09-08T08:24:44;6.25;;;5.70;;
15246;SDS011;7726;48.820;9.248;2023-09-08T08:27:11;5.97;;;5.35;;
15246;SDS011;7726;48.820;9.248;2023-09-08T08:29:38;6.00;;;5.43;;
15246;SDS011;7726;48.820;9.248;2023-09-08T08:32:06;5.70;;;4.97;;
15246;SDS011;7726;48.820;9.248;2023-09-08T08:34:33;6.35;;;5.60;;
15246;SDS011;7726;48.820;9.248;2023-09-08T08:37:01;5.78;;;5.18;;
15246;SDS011;7726;48.820;9.248;2023-09-08T08:39:28;7.45;;;5.38;;
15246;SDS011;7726;48.820;9.248;2023-09-08T08:41:56;5.88;;;4.88;;
15246;SDS011;7726;48.820;9.248;2023-09-08T08:44:23;5.75;;;5.32;;
15246;SDS011;7726;48.820;9.248;2023-09-08T08:46:50;8.10;;;5.10;;
15246;SDS011;7726;48.820;9.248;2023-09-08T08:49:18;5.82;;;5.07;;
15246;SDS011;7726;48.820;9.248;2023-09-08T08:51:45;8.80;;;5.22;;
15246;SDS011;7726;48.820;9.248;2023-09-08T08:54:13;11.13;;;5.50;;
15246;SDS011;7726;48.820;9.248;2023-09-08T08:56:42;7.65;;;5.45;;
15246;SDS011;7726;48.820;9.248;2023-09-08T08:59:09;5.97;;;5.03;;
15246;SDS011;7726;48.820;9.248;2023-09-08T09:01:36;5.82;;;5.20;;
15246;SDS011;7726;48.820;9.248;2023-09-08T09:04:05;6.60;;;5.30;;
15246;SDS011;7726;48.820;9.248;2023-09-08T09:06:32;8.23;;;5.25;;
15246;SDS011;7726;48.820;9.248;2023-09-08T09:08:59;9.82;;;6.20;;
15246;SDS011;7726;48.820;9.248;2023-09-08T09:11:28;5.95;;;5.45;;
15246;SDS011;7726;48.820;9.248;2023-09-08T09:13:56;6.20;;;5.60;;
15246;SDS011;7726;48.820;9.248;2023-09-08T09:16:23;7.47;;;5.38;;
15246;SDS011;7726;48.820;9.248;2023-09-08T09:18:53;6.28;;;5.68;;
15246;SDS011;7726;48.820;9.248;2023-09-08T09:21:21;6.38;;;5.07;;
15246;SDS011;7726;48.820;9.248;2023-09-08T09:23:48;9.43;;;5.40;;
15246;SDS011;7726;48.820;9.248;2023-09-08T09:26:22;5.68;;;5.18;;
15246;SDS011;7726;48.820;9.248;2023-09-08T09:28:51;4.97;;;4.47;;
15246;SDS011;7726;48.820;9.248;2023-09-08T09:31:22;4.55;;;4.15;;
15246;SDS011;7726;48.820;9.248;2023-09-08T09:34:00;7.18;;;5.10;;
15246;SDS011;7726;48.820;9.248;2023-09-08T09:36:29;5.43;;;4.93;;
15246;SDS011;7726;48.820;9.248;2023-09-08T09:38:58;4.45;;;4.15;;
15246;SDS011;7726;48.820;9.248;2023-09-08T09:41:26;5.13;;;4.63;;
15246;SDS011;7726;48.820;9.248;2023-09-08T09:43:56;5.90;;;5.18;;
15246;SDS011;7726;48.820;9.248;2023-09-08T09:46:27;5.32;;;4.72;;
15246;SDS011;7726;48.820;9.248;2023-09-08T09:48:54;5.65;;;5.15;;
15246;SDS011;7726;48.820;9.248;2023-09-08T09:51:22;6.43;;;5.50;;
15246;SDS011;7726;48.820;9.248;2023-09-08T09:53:49;7.28;;;5.03;;
15246;SDS011;7726;48.820;9.248;2023-09-08T09:56:17;5.43;;;5.00;;
15246;SDS011;7726;48.820;9.248;2023-09-08T09:58:44;6.63;;;5.85;;
15246;SDS011;7726;48.820;9.248;2023-09-08T10:01:13;7.93;;;6.05;;
15246;SDS011;7726;48.820;9.248;2023-09-08T10:03:40;7.95;;;5.53;;
15246;SDS011;7726;48.820;9.248;2023-09-08T10:06:07;6.93;;;5.57;;
15246;SDS011;7726;48.820;9.248;2023-09-08T10:08:35;6.60;;;5.38;;
15246;SDS011;7726;48.820;9.248;2023-09-08T10:11:04;8.68;;;5.53;;
15246;SDS011;7726;48.820;9.248;2023-09-08T10:13:33;5.88;;;5.32;;
15246;SDS011;7726;48.820;9.248;2023-09-08T10:16:03;7.80;;;5.45;;
15246;SDS011;7726;48.820;9.248;2023-09-08T10:18:34;6.43;;;5.80;;
15246;SDS011;7726;48.820;9.248;2023-09-08T10:21:03;5.47;;;4.97;;
15246;SDS011;7726;48.820;9.248;2023-09-08T10:23:31;7.15;;;5.25;;
15246;SDS011;7726;48.820;9.248;2023-09-08T10:26:01;5.65;;;5.10;;
15246;SDS011;7726;48.820;9.248;2023-09-08T10:28:29;6.03;;;5.25;;
15246;SDS011;7726;48.820;9.248;2023-09-08T10:30:57;5.63;;;5.10;;
15246;SDS011;7726;48.820;9.248;2023-09-08T10:33:24;6.07;;;4.90;;
15246;SDS011;7726;48.820;9.248;2023-09-08T10:35:53;7.68;;;6.00;;
15246;SDS011;7726;48.820;9.248;2023-09-08T10:38:21;6.75;;;5.03;;
15246;SDS011;7726;48.820;9.248;2023-09-08T10:40:47;5.35;;;4.85;;
15246;SDS011;7726;48.820;9.248;2023-09-08T10:43:15;6.60;;;4.72;;
15246;SDS011;7726;48.820;9.248;2023-09-08T10:45:42;7.10;;;5.18;;
15246;SDS011;7726;48.820;9.248;2023-09-08T10:48:10;5.65;;;5.05;;
15246;SDS011;7726;48.820;9.248;2023-09-08T10:50:39;5.55;;;5.03;;
15246;SDS011;7726;48.820;9.248;2023-09-08T10:53:09;5.53;;;5.05;;
15246;SDS011;7726;48.820;9.248;2023-09-08T10:55:40;5.57;;;4.63;;
15246;SDS011;7726;48.820;9.248;2023-09-08T10:58:09;6.72;;;5.07;;
15246;SDS011;7726;48.820;9.248;2023-09-08T11:00:43;5.38;;;4.88;;
15246;SDS011;7726;48.820;9.248;2023-09-08T11:03:11;5.00;;;4.60;;
15246;SDS011;7726;48.820;9.248;2023-09-08T11:05:39;5.82;;;5.05;;
15246;SDS011;7726;48.820;9.248;2023-09-08T11:08:06;8.07;;;5.50;;
15246;SDS011;7726;48.820;9.248;2023-09-08T11:10:34;5.75;;;4.97;;
15246;SDS011;7726;48.820;9.248;2023-09-08T11:13:03;5.32;;;4.47;;
15246;SDS011;7726;48.820;9.248;2023-09-08T11:15:31;5.18;;;4.68;;
15246;SDS011;7726;48.820;9.248;2023-09-08T11:18:02;8.45;;;5.00;;
15246;SDS011;7726;48.820;9.248;2023-09-08T11:20:31;6.32;;;5.13;;
15246;SDS011;7726;48.820;9.248;2023-09-08T11:22:58;5.90;;;5.25;;
15246;SDS011;7726;48.820;9.248;2023-09-08T11:25:25;7.95;;;5.00;;
15246;SDS011;7726;48.820;9.248;2023-09-08T11:27:54;5.65;;;5.10;;
15246;SDS011;7726;48.820;9.248;2023-09-08T11:30:21;4.95;;;4.57;;
15246;SDS011;7726;48.820;9.248;2023-09-08T11:32:48;5.72;;;5.15;;
15246;SDS011;7726;48.820;9.248;2023-09-08T11:35:16;5.90;;;5.28;;
15246;SDS011;7726;48.820;9.248;2023-09-08T11:37:45;6.50;;;4.80;;
15246;SDS011;7726;48.820;9.248;2023-09-08T11:40:14;5.78;;;5.25;;
15246;SDS011;7726;48.820;9.248;2023-09-08T11:42:42;5.25;;;4.85;;
15246;SDS011;7726;48.820;9.248;2023-09-08T11:45:12;5.72;;;5.22;;
15246;SDS011;7726;48.820;9.248;2023-09-08T11:47:40;5.88;;;5.25;;
15246;SDS011;7726;48.820;9.248;2023-09-08T11:50:08;5.25;;;4.75;;
15246;SDS011;7726;48.820;9.248;2023-09-08T11:52:36;7.97;;;5.28;;
15246;SDS011;7726;48.820;9.248;2023-09-08T11:55:05;5.72;;;5.30;;
15246;SDS011;7726;48.820;9.248;2023-09-08T11:57:33;6.05;;;5.13;;
15246;SDS011;7726;48.820;9.248;2023-09-08T12:00:00;5.47;;;4.88;;
15246;SDS011;7726;48.820;9.248;2023-09-08T12:05:03;8.30;;;5.57;;
15246;SDS011;7726;48.820;9.248;2023-09-08T12:07:31;5.60;;;5.20;;
15246;SDS011;7726;48.820;9.248;2023-09-08T12:09:58;5.40;;;4.90;;
15246;SDS011;7726;48.820;9.248;2023-09-08T12:12:25;5.25;;;4.85;;
15246;SDS011;7726;48.820;9.248;2023-09-08T12:14:52;6.30;;;4.80;;
15246;SDS011;7726;48.820;9.248;2023-09-08T12:17:20;5.22;;;4.82;;
15246;SDS011;7726;48.820;9.248;2023-09-08T12:19:50;5.32;;;4.82;;
15246;SDS011;7726;48.820;9.248;2023-09-08T12:22:19;6.90;;;5.47;;
15246;SDS011;7726;48.820;9.248;2023-09-08T12:24:48;5.72;;;5.22;;
15246;SDS011;7726;48.820;9.248;2023-09-08T12:27:15;5.45;;;5.05;;
15246;SDS011;7726;48.820;9.248;2023-09-08T12:29:51;6.03;;;4.85;;
15246;SDS011;7726;48.820;9.248;2023-09-08T12:32:19;5.25;;;4.72;;
15246;SDS011;7726;48.820;9.248;2023-09-08T12:34:46;5.13;;;4.57;;
15246;SDS011;7726;48.820;9.248;2023-09-08T12:37:13;6.28;;;5.32;;
15246;SDS011;7726;48.820;9.248;2023-09-08T12:39:42;5.00;;;4.60;;
15246;SDS011;7726;48.820;9.248;2023-09-08T12:42:09;5.35;;;4.88;;
15246;SDS011;7726;48.820;9.248;2023-09-08T12:44:36;5.00;;;4.60;;
15246;SDS011;7726;48.820;9.248;2023-09-08T12:47:03;7.13;;;4.57;;
15246;SDS011;7726;48.820;9.248;2023-09-08T12:49:31;5.68;;;5.10;;
15246;SDS011;7726;48.820;9.248;2023-09-08T12:51:58;4.80;;;4.40;;
15246;SDS011;7726;48.820;9.248;2023-09-08T12:54:25;4.93;;;4.57;;
15246;SDS011;7726;48.820;9.248;2023-09-08T12:56:54;4.68;;;4.20;;
15246;SDS011;7726;48.820;9.248;2023-09-08T12:59:21;5.43;;;4.80;;
15246;SDS011;7726;48.820;9.248;2023-09-08T13:01:48;5.50;;;4.82;;
15246;SDS011;7726;48.820;9.248;2023-09-08T13:04:15;4.82;;;4.43;;
15246;SDS011;7726;48.820;9.248;2023-09-08T13:06:44;6.10;;;4.85;;
15246;SDS011;7726;48.820;9.248;2023-09-08T13:09:11;5.20;;;4.80;;
15246;SDS011;7726;48.820;9.248;2023-09-08T13:11:38;5.03;;;4.53;;
15246;SDS011;7726;48.820;9.248;2023-09-08T13:14:07;7.95;;;5.25;;
15246;SDS011;7726;48.820;9.248;2023-09-08T13:16:34;5.03;;;4.63;;
15246;SDS011;7726;48.820;9.248;2023-09-08T13:19:01;5.25;;;4.30;;
15246;SDS011;7726;48.820;9.248;2023-09-08T13:21:28;6.82;;;4.82;;
15246;SDS011;7726;48.820;9.248;2023-09-08T13:23:55;6.97;;;4.40;;
15246;SDS011;7726;48.820;9.248;2023-09-08T13:26:22;5.18;;;4.68;;
15246;SDS011;7726;48.820;9.248;2023-09-08T13:28:50;5.20;;;4.78;;
15246;SDS011;7726;48.820;9.248;2023-09-08T13:31:19;4.85;;;4.45;;
15246;SDS011;7726;48.820;9.248;2023-09-08T13:33:46;5.38;;;4.97;;
15246;SDS011;7726;48.820;9.248;2023-09-08T13:36:13;5.00;;;4.22;;
15246;SDS011;7726;48.820;9.248;2023-09-08T13:38:40;5.15;;;4.65;;
15246;SDS011;7726;48.820;9.248;2023-09-08T13:41:07;5.20;;;4.70;;
15246;SDS011;7726;48.820;9.248;2023-09-08T13:43:34;4.53;;;4.20;;
15246;SDS011;7726;48.820;9.248;2023-09-08T13:46:01;5.13;;;4.72;;
15246;SDS011;7726;48.820;9.248;2023-09-08T13:48:30;4.68;;;4.28;;
15246;SDS011;7726;48.820;9.248;2023-09-08T13:51:00;5.00;;;4.38;;
15246;SDS011;7726;48.820;9.248;2023-09-08T13:53:27;5.05;;;4.38;;
15246;SDS011;7726;48.820;9.248;2023-09-08T13:55:55;5.25;;;4.75;;
15246;SDS011;7726;48.820;9.248;2023-09-08T13:58:22;5.53;;;4.80;;
15246;SDS011;7726;48.820;9.248;2023-09-08T14:00:49;5.95;;;4.55;;
15246;SDS011;7726;48.820;9.248;2023-09-08T14:03:16;4.70;;;4.13;;
15246;SDS011;7726;48.820;9.248;2023-09-08T14:05:45;4.72;;;4.32;;
15246;SDS011;7726;48.820;9.248;2023-09-08T14:08:12;4.50;;;4.20;;
15246;SDS011;7726;48.820;9.248;2023-09-08T14:10:39;4.95;;;3.92;;
15246;SDS011;7726;48.820;9.248;2023-09-08T14:13:06;5.45;;;4.80;;
15246;SDS011;7726;48.820;9.248;2023-09-08T14:15:34;4.20;;;3.90;;
15246;SDS011;7726;48.820;9.248;2023-09-08T14:18:01;9.32;;;4.80;;
15246;SDS011;7726;48.820;9.248;2023-09-08T14:20:28;5.68;;;4.55;;
15246;SDS011;7726;48.820;9.248;2023-09-08T14:22:56;4.90;;;4.50;;
15246;SDS011;7726;48.820;9.248;2023-09-08T14:25:23;4.70;;;4.30;;
15246;SDS011;7726;48.820;9.248;2023-09-08T14:27:51;5.00;;;4.60;;
15246;SDS011;7726;48.820;9.248;2023-09-08T14:30:18;5.43;;;4.63;;
15246;SDS011;7726;48.820;9.248;2023-09-08T14:32:45;5.78;;;4.85;;
15246;SDS011;7726;48.820;9.248;2023-09-08T14:35:12;5.03;;;4.47;;
15246;SDS011;7726;48.820;9.248;2023-09-08T14:37:40;4.47;;;4.07;;
15246;SDS011;7726;48.820;9.248;2023-09-08T14:40:12;5.03;;;4.45;;
15246;SDS011;7726;48.820;9.248;2023-09-08T14:42:39;4.45;;;4.13;;
15246;SDS011;7726;48.820;9.248;2023-09-08T14:45:06;5.25;;;4.10;;
15246;SDS011;7726;48.820;9.248;2023-09-08T14:47:34;4.47;;;4.07;;
15246;SDS011;7726;48.820;9.248;2023-09-08T14:50:01;4.50;;;4.18;;
15246;SDS011;7726;48.820;9.248;2023-09-08T14:52:29;4.65;;;4.25;;
15246;SDS011;7726;48.820;9.248;2023-09-08T14:54:56;4.88;;;4.38;;
15246;SDS011;7726;48.820;9.248;2023-09-08T14:57:24;4.20;;;3.88;;
15246;SDS011;7726;48.820;9.248;2023-09-08T14:59:52;7.32;;;4.63;;
15246;SDS011;7726;48.820;9.248;2023-09-08T15:02:20;4.60;;;4.20;;
15246;SDS011;7726;48.820;9.248;2023-09-08T15:04:47;4.63;;;4.22;;
15246;SDS011;7726;48.820;9.248;2023-09-08T15:07:14;4.10;;;3.70;;